createdAt,value
2019-01-08T00:00:58.863Z,60.02
2019-01-08T00:03:26.293Z,60.16
2019-01-08T00:05:53.680Z,60.58
2019-01-08T00:08:21.096Z,60.80
2019-01-08T00:10:48.483Z,60.75
2019-01-08T00:13:15.892Z,60.62
2019-01-08T00:15:43.300Z,60.69
2019-01-08T00:18:10.709Z,60.79
2019-01-08T00:20:38.110Z,61.02
2019-01-08T00:23:05.516Z,61.13
2019-01-08T00:25:33.006Z,61.27
2019-01-08T00:28:00.391Z,61.29
2019-01-08T00:30:27.836Z,60.99
2019-01-08T00:32:55.243Z,60.76
2019-01-08T00:35:22.717Z,60.53
2019-01-08T00:37:50.110Z,60.38
2019-01-08T00:40:17.507Z,60.28
2019-01-08T00:42:44.910Z,60.23
2019-01-08T00:45:12.316Z,60.42
2019-01-08T00:47:39.713Z,60.59
2019-01-08T00:50:07.118Z,60.69
2019-01-08T00:52:34.552Z,60.83
2019-01-08T00:55:02.001Z,61.01
2019-01-08T00:57:30.047Z,61.08
2019-01-08T00:59:57.467Z,61.20
2019-01-08T01:02:24.867Z,61.36
2019-01-08T01:04:52.511Z,61.85
2019-01-08T01:07:19.907Z,61.40
2019-01-08T01:09:47.319Z,61.51
2019-01-08T01:12:14.789Z,61.38
2019-01-08T01:14:42.385Z,61.27
2019-01-08T01:17:09.772Z,61.48
2019-01-08T01:19:37.190Z,61.38
2019-01-08T01:22:04.605Z,61.28
2019-01-08T01:24:32.011Z,61.37
2019-01-08T01:26:59.422Z,61.46
2019-01-08T01:29:26.822Z,61.85
2019-01-08T01:31:54.260Z,61.67
2019-01-08T01:34:21.683Z,61.57
2019-01-08T01:36:49.152Z,61.52
2019-01-08T01:39:16.548Z,61.21
2019-01-08T01:41:43.958Z,61.39
2019-01-08T01:44:11.501Z,61.12
2019-01-08T01:46:38.900Z,61.01
2019-01-08T01:49:06.339Z,61.08
2019-01-08T01:51:33.747Z,60.93
2019-01-08T01:54:01.152Z,60.75
2019-01-08T01:56:28.697Z,60.83
2019-01-08T01:58:56.107Z,61.18
2019-01-08T02:01:24.125Z,61.55
2019-01-08T02:03:51.512Z,61.40
2019-01-08T02:06:18.915Z,61.39
2019-01-08T02:08:46.328Z,61.64
2019-01-08T02:11:13.788Z,61.84
2019-01-08T02:13:41.486Z,62.06
2019-01-08T02:16:08.887Z,62.29
2019-01-08T02:18:36.300Z,62.58
2019-01-08T02:21:03.726Z,62.50
2019-01-08T02:23:31.119Z,62.37
2019-01-08T02:25:58.695Z,62.10
2019-01-08T02:28:26.084Z,62.46
2019-01-08T02:30:53.476Z,62.32
2019-01-08T02:33:20.888Z,62.42
2019-01-08T02:35:48.292Z,62.34
2019-01-08T02:38:15.698Z,62.41
2019-01-08T02:40:43.166Z,61.99
2019-01-08T02:43:10.556Z,62.31
2019-01-08T02:45:37.961Z,62.12
2019-01-08T02:48:05.360Z,62.20
2019-01-08T02:50:32.773Z,61.89
2019-01-08T02:53:01.419Z,61.67
2019-01-08T02:55:28.828Z,61.73
2019-01-08T02:57:56.223Z,61.28
2019-01-08T03:00:23.635Z,61.39
2019-01-08T03:02:51.035Z,61.37
2019-01-08T03:05:19.659Z,61.13
2019-01-08T03:07:47.122Z,61.39
2019-01-08T03:10:14.512Z,61.41
2019-01-08T03:12:41.903Z,61.30
2019-01-08T03:15:09.305Z,61.04
2019-01-08T03:17:36.688Z,61.19
2019-01-08T03:20:04.235Z,61.07
2019-01-08T03:22:31.653Z,61.08
2019-01-08T03:24:59.056Z,61.16
2019-01-08T03:27:26.482Z,61.23
2019-01-08T03:29:53.881Z,61.04
2019-01-08T03:32:21.285Z,61.05
2019-01-08T03:34:48.897Z,60.90
2019-01-08T03:37:16.285Z,60.84
2019-01-08T03:39:43.683Z,60.92
2019-01-08T03:42:11.095Z,61.06
2019-01-08T03:44:38.493Z,61.00
2019-01-08T03:47:05.914Z,61.07
2019-01-08T03:49:33.304Z,61.41
2019-01-08T03:52:00.704Z,61.69
2019-01-08T03:54:28.186Z,62.12
2019-01-08T03:56:55.594Z,62.02
2019-01-08T03:59:23.027Z,62.15
2019-01-08T04:01:50.514Z,61.75
2019-01-08T04:04:18.040Z,61.56
2019-01-08T04:06:45.449Z,61.32
2019-01-08T04:09:12.842Z,61.50
2019-01-08T04:11:40.260Z,61.73
2019-01-08T04:14:07.679Z,61.65
2019-01-08T04:16:35.072Z,61.48
2019-01-08T04:19:02.667Z,61.28
2019-01-08T04:21:30.059Z,61.03
2019-01-08T04:23:57.484Z,61.19
2019-01-08T04:26:25.411Z,61.19
2019-01-08T04:28:52.845Z,61.33
2019-01-08T04:31:20.239Z,61.36
2019-01-08T04:33:47.632Z,61.20
2019-01-08T04:36:15.105Z,61.18
2019-01-08T04:38:42.527Z,61.35
2019-01-08T04:41:09.904Z,61.56
2019-01-08T04:43:37.338Z,61.65
2019-01-08T04:46:04.721Z,61.67
2019-01-08T04:48:32.126Z,61.41
2019-01-08T04:50:59.562Z,61.24
2019-01-08T04:53:27.038Z,61.13
2019-01-08T04:55:54.442Z,60.86
2019-01-08T04:58:21.857Z,61.26
2019-01-08T05:00:49.281Z,61.12
2019-01-08T05:03:16.751Z,61.19
2019-01-08T05:05:44.158Z,61.26
2019-01-08T05:08:11.585Z,61.35
2019-01-08T05:10:39.040Z,61.45
2019-01-08T05:13:06.445Z,61.27
2019-01-08T05:15:33.841Z,61.27
2019-01-08T05:18:01.254Z,61.42
2019-01-08T05:20:28.661Z,61.44
2019-01-08T05:22:56.171Z,61.99
2019-01-08T05:25:23.628Z,62.15
2019-01-08T05:27:51.045Z,62.03
2019-01-08T05:30:18.452Z,62.07
2019-01-08T05:32:45.852Z,62.01
2019-01-08T05:35:13.523Z,61.91
2019-01-08T05:37:40.919Z,62.26
2019-01-08T05:40:08.360Z,62.34
2019-01-08T05:42:35.765Z,62.15
2019-01-08T05:45:03.162Z,61.89
2019-01-08T05:47:30.723Z,61.98
2019-01-08T05:49:58.141Z,62.02
2019-01-08T05:52:25.574Z,61.67
2019-01-08T05:54:52.981Z,61.73
2019-01-08T05:57:20.437Z,61.85
2019-01-08T05:59:47.848Z,61.77
2019-01-08T06:02:15.263Z,61.62
2019-01-08T06:04:42.732Z,61.54
2019-01-08T06:07:10.155Z,61.74
2019-01-08T06:09:37.574Z,61.97
2019-01-08T06:12:05.014Z,62.34
2019-01-08T06:14:32.437Z,62.53
2019-01-08T06:16:59.841Z,62.49
2019-01-08T06:19:27.240Z,62.31
2019-01-08T06:21:55.393Z,62.39
2019-01-08T06:24:22.809Z,62.39
2019-01-08T06:26:50.250Z,62.48
2019-01-08T06:29:17.661Z,62.63
2019-01-08T06:31:45.955Z,62.59
2019-01-08T06:34:13.876Z,62.67
2019-01-08T06:36:41.305Z,62.72
2019-01-08T06:39:09.149Z,62.70
2019-01-08T06:41:36.557Z,62.78
2019-01-08T06:44:03.956Z,62.87
2019-01-08T06:46:31.379Z,63.11
2019-01-08T06:48:58.786Z,63.38
2019-01-08T06:51:26.475Z,63.11
2019-01-08T06:53:53.890Z,62.87
2019-01-08T06:56:21.578Z,62.93
2019-01-08T06:58:48.993Z,62.89
2019-01-08T07:01:16.377Z,62.98
2019-01-08T07:03:43.780Z,63.12
2019-01-08T07:06:11.198Z,63.10
2019-01-08T07:08:38.617Z,63.20
2019-01-08T07:11:06.014Z,63.14
2019-01-08T07:13:33.435Z,63.02
2019-01-08T07:16:00.838Z,63.00
2019-01-08T07:18:28.832Z,63.27
2019-01-08T07:20:56.251Z,63.16
2019-01-08T07:23:23.703Z,62.98
2019-01-08T07:25:51.149Z,63.10
2019-01-08T07:28:18.559Z,63.00
2019-01-08T07:30:46.069Z,63.21
2019-01-08T07:33:13.477Z,63.15
2019-01-08T07:35:40.879Z,63.18
2019-01-08T07:38:08.322Z,63.43
2019-01-08T07:40:35.707Z,63.49
2019-01-08T07:43:03.162Z,63.40
2019-01-08T07:45:30.592Z,63.54
2019-01-08T07:47:57.984Z,63.52
2019-01-08T07:50:25.682Z,63.72
2019-01-08T07:52:53.084Z,64.02
2019-01-08T07:55:20.688Z,64.01
2019-01-08T07:57:48.119Z,64.09
2019-01-08T08:00:15.555Z,64.44
2019-01-08T08:02:43.004Z,64.35
2019-01-08T08:05:10.413Z,64.21
2019-01-08T08:07:37.957Z,64.21
2019-01-08T08:10:05.466Z,64.43
2019-01-08T08:12:32.881Z,64.65
2019-01-08T08:15:00.441Z,64.68
2019-01-08T08:17:27.706Z,64.89
2019-01-08T08:19:55.336Z,64.87
2019-01-08T08:22:22.746Z,64.90
2019-01-08T08:24:50.196Z,64.36
2019-01-08T08:27:17.667Z,64.15
2019-01-08T08:29:45.681Z,64.28
2019-01-08T08:32:13.167Z,64.15
2019-01-08T08:34:40.717Z,64.11
2019-01-08T08:37:08.173Z,63.81
2019-01-08T08:39:35.570Z,63.67
2019-01-08T08:42:02.984Z,63.32
2019-01-08T08:44:30.391Z,63.08
2019-01-08T08:46:58.698Z,63.23
2019-01-08T08:49:26.143Z,63.73
2019-01-08T08:51:53.571Z,63.75
2019-01-08T08:54:21.013Z,63.68
2019-01-08T08:56:48.616Z,63.66
2019-01-08T08:59:16.021Z,63.63
2019-01-08T09:01:43.445Z,63.62
2019-01-08T09:04:10.840Z,63.65
2019-01-08T09:06:38.285Z,63.50
2019-01-08T09:09:05.678Z,63.20
2019-01-08T09:11:33.210Z,62.96
2019-01-08T09:14:00.770Z,62.69
2019-01-08T09:16:28.200Z,62.58
2019-01-08T09:18:55.621Z,62.50
2019-01-08T09:21:23.033Z,62.42
2019-01-08T09:23:50.460Z,62.13
2019-01-08T09:26:17.895Z,61.87
2019-01-08T09:28:45.307Z,61.73
2019-01-08T09:31:15.485Z,61.48
2019-01-08T09:33:41.098Z,61.29
2019-01-08T09:36:09.467Z,61.18
2019-01-08T09:38:37.060Z,61.14
2019-01-08T09:41:04.524Z,60.35
2019-01-08T09:43:31.928Z,59.72
2019-01-08T09:45:59.335Z,59.46
2019-01-08T09:48:26.892Z,59.01
2019-01-08T09:50:54.371Z,58.51
2019-01-08T09:53:21.793Z,57.90
2019-01-08T09:55:49.255Z,57.54
2019-01-08T09:58:16.660Z,57.30
2019-01-08T10:00:43.614Z,57.14
2019-01-08T10:03:11.070Z,56.44
2019-01-08T10:05:38.505Z,56.00
2019-01-08T10:08:05.936Z,56.29
2019-01-08T10:10:32.894Z,56.20
2019-01-08T10:13:00.307Z,55.99
2019-01-08T10:15:27.741Z,55.92
2019-01-08T10:17:54.900Z,55.97
2019-01-08T10:20:23.083Z,55.70
2019-01-08T10:22:50.500Z,55.29
2019-01-08T10:25:18.055Z,55.44
2019-01-08T10:27:45.466Z,55.17
2019-01-08T10:30:12.470Z,55.25
2019-01-08T10:32:39.893Z,55.25
2019-01-08T10:35:07.299Z,55.55
2019-01-08T10:37:34.776Z,55.70
2019-01-08T10:40:02.890Z,55.82
2019-01-08T10:42:29.896Z,55.86
2019-01-08T10:44:57.324Z,55.79
2019-01-08T10:47:24.280Z,55.68
2019-01-08T10:49:51.227Z,55.95
2019-01-08T10:52:18.166Z,56.18
2019-01-08T10:54:45.161Z,56.18
2019-01-08T10:57:12.117Z,55.81
2019-01-08T10:59:39.584Z,56.04
2019-01-08T11:02:06.563Z,55.98
2019-01-08T11:04:34.079Z,56.31
2019-01-08T11:07:01.574Z,55.97
2019-01-08T11:09:28.988Z,56.44
2019-01-08T11:11:56.424Z,56.79
2019-01-08T11:14:24.575Z,56.64
2019-01-08T11:16:52.740Z,56.87
2019-01-08T11:19:20.151Z,57.03
2019-01-08T11:21:47.597Z,57.72
2019-01-08T11:24:15.036Z,58.39
2019-01-08T11:26:42.474Z,58.92
2019-01-08T11:29:09.911Z,59.32
2019-01-08T11:31:37.316Z,59.66
2019-01-08T11:34:04.894Z,59.75
2019-01-08T11:36:32.294Z,59.67
2019-01-08T11:38:59.831Z,59.69
2019-01-08T11:41:27.240Z,59.58
2019-01-08T11:43:54.700Z,59.97
2019-01-08T11:46:22.089Z,59.97
2019-01-08T11:48:49.508Z,60.45
2019-01-08T11:51:17.068Z,60.25
2019-01-08T11:53:44.549Z,60.00
2019-01-08T11:56:12.232Z,59.94
2019-01-08T11:58:39.806Z,59.95
2019-01-08T12:01:07.231Z,60.15
2019-01-08T12:03:34.728Z,60.15
2019-01-08T12:06:01.757Z,60.44
2019-01-08T12:08:30.084Z,60.40
2019-01-08T12:10:57.518Z,60.79
2019-01-08T12:13:24.990Z,60.65
2019-01-08T12:15:53.037Z,60.52
2019-01-08T12:18:20.469Z,60.21
2019-01-08T12:20:47.505Z,60.44
2019-01-08T12:23:14.966Z,60.26
2019-01-08T12:25:42.371Z,60.15
2019-01-08T12:28:09.782Z,60.03
2019-01-08T12:30:37.270Z,59.82
2019-01-08T12:33:04.775Z,60.25
2019-01-08T12:35:32.202Z,60.77
2019-01-08T12:37:59.685Z,61.46
2019-01-08T12:40:27.122Z,62.19
2019-01-08T12:42:54.531Z,62.56
2019-01-08T12:45:21.983Z,63.04
2019-01-08T12:47:49.592Z,63.45
2019-01-08T12:50:17.004Z,64.06
2019-01-08T12:52:44.473Z,64.30
2019-01-08T12:55:13.052Z,64.41
2019-01-08T12:57:39.437Z,64.66
2019-01-08T13:00:06.840Z,64.75
2019-01-08T13:02:34.280Z,64.67
2019-01-08T13:05:02.014Z,64.37
2019-01-08T13:07:29.421Z,63.96
2019-01-08T13:09:56.824Z,63.90
2019-01-08T13:12:24.300Z,63.90
2019-01-08T13:14:51.858Z,63.88
2019-01-08T13:17:19.339Z,64.74
2019-01-08T13:19:46.785Z,65.23
2019-01-08T13:22:14.596Z,65.16
2019-01-08T13:24:42.017Z,65.01
2019-01-08T13:27:09.630Z,65.43
2019-01-08T13:29:37.185Z,65.78
2019-01-08T13:32:04.582Z,66.32
2019-01-08T13:34:32.057Z,67.05
2019-01-08T13:36:59.459Z,67.86
2019-01-08T13:39:26.863Z,68.25
2019-01-08T13:41:54.295Z,68.53
2019-01-08T13:44:21.684Z,68.99
2019-01-08T13:46:49.137Z,69.11
2019-01-08T13:49:16.552Z,68.93
2019-01-08T13:51:44.019Z,69.33
2019-01-08T13:54:11.435Z,69.85
2019-01-08T13:56:38.856Z,70.27
2019-01-08T13:59:06.358Z,69.73
2019-01-08T14:01:33.886Z,69.74
2019-01-08T14:04:01.346Z,70.07
2019-01-08T14:06:28.783Z,70.18
2019-01-08T14:08:56.415Z,69.95
2019-01-08T14:11:23.810Z,69.87
2019-01-08T14:13:51.258Z,69.69
2019-01-08T14:16:18.743Z,69.87
2019-01-08T14:18:46.243Z,70.33
2019-01-08T14:21:13.675Z,70.72
2019-01-08T14:23:41.079Z,70.36
2019-01-08T14:26:08.516Z,69.97
2019-01-08T14:28:35.941Z,69.99
2019-01-08T14:31:03.429Z,69.84
2019-01-08T14:33:30.831Z,69.55
2019-01-08T14:35:58.252Z,69.45
2019-01-08T14:38:25.708Z,69.58
2019-01-08T14:40:53.164Z,69.50
2019-01-08T14:43:20.570Z,69.21
2019-01-08T14:45:48.022Z,69.00
2019-01-08T14:48:15.549Z,68.78
2019-01-08T14:50:42.971Z,68.80
2019-01-08T14:53:10.600Z,69.03
2019-01-08T14:55:38.786Z,69.54
2019-01-08T14:58:06.371Z,69.50
2019-01-08T15:00:33.928Z,69.87
2019-01-08T15:03:01.377Z,70.06
2019-01-08T15:05:28.788Z,70.09
2019-01-08T15:07:56.289Z,70.36
2019-01-08T15:10:23.677Z,70.98
2019-01-08T15:12:51.126Z,70.93
2019-01-08T15:15:18.563Z,71.30
2019-01-08T15:17:46.010Z,71.67
2019-01-08T15:20:13.417Z,71.76
2019-01-08T15:22:40.904Z,72.26
2019-01-08T15:25:08.307Z,72.10
2019-01-08T15:27:35.751Z,72.50
2019-01-08T15:30:03.811Z,72.58
2019-01-08T15:32:31.226Z,72.96
2019-01-08T15:34:58.638Z,73.36
2019-01-08T15:37:26.147Z,73.91
2019-01-08T15:39:53.555Z,74.14
2019-01-08T15:42:21.461Z,74.54
2019-01-08T15:44:48.870Z,75.31
2019-01-08T15:47:16.337Z,75.54
2019-01-08T15:49:43.785Z,75.16
2019-01-08T15:52:11.225Z,75.38
2019-01-08T15:54:38.698Z,75.57
2019-01-08T15:57:06.133Z,75.89
2019-01-08T15:59:33.623Z,76.42
2019-01-08T16:02:01.104Z,76.77
2019-01-08T16:04:28.506Z,77.33
2019-01-08T16:06:56.470Z,77.76
2019-01-08T16:09:23.874Z,78.09
2019-01-08T16:11:51.273Z,77.96
2019-01-08T16:14:18.699Z,78.07
2019-01-08T16:16:46.111Z,77.86
2019-01-08T16:19:13.520Z,77.83
2019-01-08T16:21:40.918Z,77.85
2019-01-08T16:24:08.343Z,77.88
2019-01-08T16:26:35.828Z,78.10
2019-01-08T16:29:03.424Z,78.22
2019-01-08T16:31:30.895Z,78.12
2019-01-08T16:33:58.369Z,78.01
2019-01-08T16:36:25.795Z,78.04
2019-01-08T16:38:53.241Z,78.83
2019-01-08T16:41:20.654Z,78.61
2019-01-08T16:43:48.058Z,78.74
2019-01-08T16:46:15.549Z,78.70
2019-01-08T16:48:43.023Z,78.55
2019-01-08T16:51:10.408Z,78.48
2019-01-08T16:53:41.530Z,78.50
2019-01-08T16:56:05.266Z,78.34
2019-01-08T16:58:32.716Z,78.33
2019-01-08T17:01:00.135Z,78.48
2019-01-08T17:03:27.594Z,78.50
2019-01-08T17:05:55.041Z,78.42
2019-01-08T17:08:22.503Z,78.91
2019-01-08T17:10:49.923Z,79.09
2019-01-08T17:13:17.325Z,78.86
2019-01-08T17:15:44.833Z,79.03
2019-01-08T17:18:12.270Z,78.93
2019-01-08T17:20:39.721Z,79.04
2019-01-08T17:23:07.141Z,78.83
2019-01-08T17:25:34.689Z,78.75
2019-01-08T17:28:02.123Z,78.50
2019-01-08T17:30:33.313Z,78.41
2019-01-08T17:33:00.722Z,78.51
2019-01-08T17:35:28.252Z,78.63
2019-01-08T17:37:55.839Z,78.39
2019-01-08T17:40:23.289Z,78.35
2019-01-08T17:42:50.852Z,78.41
2019-01-08T17:45:18.517Z,77.80
2019-01-08T17:47:45.958Z,77.55
2019-01-08T17:50:13.384Z,78.00
2019-01-08T17:52:40.813Z,78.12
2019-01-08T17:55:08.266Z,78.11
2019-01-08T17:57:35.689Z,78.11
2019-01-08T18:00:04.168Z,77.99
2019-01-08T18:02:31.571Z,77.63
2019-01-08T18:04:58.984Z,77.52
2019-01-08T18:07:26.414Z,77.34
2019-01-08T18:09:53.811Z,77.38
2019-01-08T18:12:21.237Z,77.72
2019-01-08T18:14:48.683Z,77.58
2019-01-08T18:17:16.118Z,77.63
2019-01-08T18:19:43.564Z,77.52
2019-01-08T18:22:10.988Z,77.38
2019-01-08T18:24:38.493Z,77.13
2019-01-08T18:27:05.974Z,77.14
2019-01-08T18:29:33.440Z,76.88
2019-01-08T18:32:00.834Z,76.89
2019-01-08T18:34:28.371Z,76.81
2019-01-08T18:36:55.824Z,76.71
2019-01-08T18:39:23.302Z,76.81
2019-01-08T18:41:50.714Z,76.54
2019-01-08T18:44:18.422Z,76.59
2019-01-08T18:46:45.870Z,76.81
2019-01-08T18:49:13.426Z,77.15
2019-01-08T18:51:40.885Z,77.41
2019-01-08T18:54:08.291Z,77.57
2019-01-08T18:56:35.720Z,77.74
2019-01-08T18:59:03.144Z,77.32
2019-01-08T19:01:30.566Z,77.34
2019-01-08T19:03:59.878Z,77.37
2019-01-08T19:06:26.620Z,77.48
2019-01-08T19:09:05.870Z,77.33
2019-01-08T19:11:33.255Z,77.17
2019-01-08T19:14:00.723Z,77.50
2019-01-08T19:16:28.178Z,77.82
2019-01-08T19:18:55.613Z,78.00
2019-01-08T19:21:23.043Z,78.22
2019-01-08T19:23:50.423Z,78.07
2019-01-08T19:26:17.878Z,77.94
2019-01-08T19:28:45.401Z,77.52
2019-01-08T19:31:12.974Z,77.58
2019-01-08T19:33:40.425Z,77.75
2019-01-08T19:36:07.992Z,77.92
2019-01-08T19:38:35.399Z,77.89
2019-01-08T19:41:03.022Z,77.61
2019-01-08T19:43:30.448Z,77.40
2019-01-08T19:45:57.943Z,77.32
2019-01-08T19:48:25.373Z,77.34
2019-01-08T19:50:52.812Z,77.02
2019-01-08T19:53:20.244Z,76.87
2019-01-08T19:55:47.754Z,76.52
2019-01-08T19:58:15.148Z,76.86
2019-01-08T20:00:42.589Z,77.15
2019-01-08T20:03:09.998Z,77.39
2019-01-08T20:05:37.407Z,76.97
2019-01-08T20:08:04.852Z,76.57
2019-01-08T20:10:32.288Z,76.21
2019-01-08T20:13:00.546Z,76.07
2019-01-08T20:15:27.980Z,75.62
2019-01-08T20:17:55.358Z,75.78
2019-01-08T20:20:22.824Z,76.29
2019-01-08T20:22:50.983Z,76.29
2019-01-08T20:25:18.381Z,76.48
2019-01-08T20:27:45.845Z,76.37
2019-01-08T20:30:13.256Z,76.50
2019-01-08T20:32:40.807Z,76.51
2019-01-08T20:35:10.199Z,77.31
2019-01-08T20:37:35.741Z,77.77
2019-01-08T20:40:03.129Z,78.63
2019-01-08T20:42:30.791Z,78.65
2019-01-08T20:44:58.208Z,78.37
2019-01-08T20:47:25.663Z,78.01
2019-01-08T20:49:53.153Z,77.74
2019-01-08T20:52:20.589Z,77.90
2019-01-08T20:54:47.991Z,77.79
2019-01-08T20:57:16.060Z,77.70
2019-01-08T20:59:43.468Z,77.52
2019-01-08T21:02:10.918Z,77.56
2019-01-08T21:04:38.338Z,77.53
2019-01-08T21:07:05.764Z,77.31
2019-01-08T21:09:33.166Z,77.19
2019-01-08T21:12:00.600Z,77.11
2019-01-08T21:14:28.011Z,77.16
2019-01-08T21:16:55.428Z,77.06
2019-01-08T21:19:22.889Z,77.20
2019-01-08T21:21:50.361Z,76.77
2019-01-08T21:24:17.796Z,76.90
2019-01-08T21:26:45.231Z,76.62
2019-01-08T21:29:12.647Z,76.60
2019-01-08T21:31:40.069Z,76.28
2019-01-08T21:34:07.483Z,76.44
2019-01-08T21:36:34.896Z,76.43
2019-01-08T21:39:02.321Z,76.14
2019-01-08T21:41:29.821Z,75.80
2019-01-08T21:43:57.219Z,75.26
2019-01-08T21:46:24.605Z,75.30
2019-01-08T21:48:52.015Z,75.32
2019-01-08T21:51:19.972Z,75.14
2019-01-08T21:53:47.432Z,75.26
2019-01-08T21:56:15.180Z,75.24
2019-01-08T21:58:42.715Z,75.27
2019-01-08T22:01:10.171Z,75.32
2019-01-08T22:03:37.586Z,75.44
2019-01-08T22:06:05.015Z,75.56
2019-01-08T22:08:32.436Z,75.52
2019-01-08T22:10:59.864Z,74.94
2019-01-08T22:13:27.250Z,74.73
2019-01-08T22:15:54.734Z,74.80
2019-01-08T22:18:22.201Z,74.69
2019-01-08T22:20:49.598Z,74.87
2019-01-08T22:23:17.023Z,74.74
2019-01-08T22:25:44.535Z,74.67
2019-01-08T22:28:11.943Z,73.96
2019-01-08T22:30:39.339Z,73.52
2019-01-08T22:33:06.766Z,73.31
2019-01-08T22:35:34.528Z,73.38
2019-01-08T22:38:01.932Z,73.65
2019-01-08T22:40:29.339Z,73.66
2019-01-08T22:42:56.751Z,73.43
2019-01-08T22:45:24.214Z,73.34
2019-01-08T22:47:51.628Z,73.08
2019-01-08T22:50:19.051Z,73.12
2019-01-08T22:52:46.448Z,73.30
2019-01-08T22:55:14.188Z,73.47
2019-01-08T22:57:41.775Z,73.90
2019-01-08T23:00:10.841Z,73.91
2019-01-08T23:02:38.240Z,73.94
2019-01-08T23:05:10.717Z,73.56
2019-01-08T23:07:33.235Z,73.62
2019-01-08T23:10:00.639Z,73.42
2019-01-08T23:12:28.062Z,73.35
2019-01-08T23:14:55.491Z,72.86
2019-01-08T23:17:22.893Z,72.25
2019-01-08T23:19:50.313Z,71.49
2019-01-08T23:22:17.752Z,70.84
2019-01-08T23:24:45.183Z,70.50
2019-01-08T23:27:12.586Z,70.14
2019-01-08T23:29:39.990Z,70.53
2019-01-08T23:32:07.486Z,70.29
2019-01-08T23:34:34.955Z,70.43
2019-01-08T23:37:02.678Z,70.33
2019-01-08T23:39:30.078Z,70.21
2019-01-08T23:41:57.489Z,70.71
2019-01-08T23:44:26.681Z,71.41
2019-01-08T23:46:54.074Z,71.90
2019-01-08T23:49:21.489Z,72.57
2019-01-08T23:51:48.890Z,73.62
2019-01-08T23:54:16.290Z,74.53
2019-01-08T23:56:44.103Z,74.49
2019-01-08T23:59:11.514Z,74.39
